createdAt,value
2019-02-08T00:00:28.479Z,19.40
2019-02-08T00:02:34.970Z,19.87
2019-02-08T00:04:41.320Z,19.07
2019-02-08T00:06:48.197Z,19.70
2019-02-08T00:08:54.467Z,21.10
2019-02-08T00:11:00.698Z,18.87
2019-02-08T00:13:07.541Z,20.10
2019-02-08T00:15:23.206Z,19.85
2019-02-08T00:17:29.640Z,20.30
2019-02-08T00:19:35.928Z,21.45
2019-02-08T00:21:42.197Z,19.10
2019-02-08T00:23:49.504Z,18.48
2019-02-08T00:25:56.899Z,21.77
2019-02-08T00:28:03.294Z,19.95
2019-02-08T00:30:19.795Z,19.70
2019-02-08T00:32:26.216Z,19.45
2019-02-08T00:34:32.897Z,20.37
2019-02-08T00:36:39.088Z,20.80
2019-02-08T00:38:45.396Z,19.40
2019-02-08T00:40:51.640Z,19.70
2019-02-08T00:42:57.943Z,20.65
2019-02-08T00:45:06.180Z,21.55
2019-02-08T00:47:13.084Z,21.10
2019-02-08T00:49:19.449Z,19.35
2019-02-08T00:51:25.762Z,21.10
2019-02-08T00:53:33.518Z,22.07
2019-02-08T00:55:40.016Z,20.92
2019-02-08T00:57:46.451Z,21.70
2019-02-08T00:59:53.105Z,20.00
2019-02-08T01:01:59.601Z,21.37
2019-02-08T01:04:05.871Z,20.95
2019-02-08T01:06:13.303Z,21.97
2019-02-08T01:08:19.548Z,18.85
2019-02-08T01:10:34.055Z,21.97
2019-02-08T01:12:40.547Z,20.55
2019-02-08T01:14:46.996Z,19.77
2019-02-08T01:16:53.292Z,22.65
2019-02-08T01:18:59.695Z,22.25
2019-02-08T01:21:06.079Z,22.07
2019-02-08T01:23:12.351Z,21.50
2019-02-08T01:25:24.892Z,20.95
2019-02-08T01:27:31.114Z,22.50
2019-02-08T01:29:37.425Z,23.40
2019-02-08T01:31:43.703Z,19.32
2019-02-08T01:33:50.131Z,22.62
2019-02-08T01:35:56.354Z,21.93
2019-02-08T01:38:02.770Z,21.17
2019-02-08T01:40:27.524Z,23.60
2019-02-08T01:42:33.736Z,24.50
2019-02-08T01:44:40.135Z,23.25
2019-02-08T01:46:46.504Z,22.58
2019-02-08T01:48:52.865Z,21.25
2019-02-08T01:50:59.352Z,22.22
2019-02-08T01:53:05.759Z,23.25
2019-02-08T01:55:12.134Z,20.88
2019-02-08T01:57:18.455Z,23.42
2019-02-08T01:59:24.698Z,20.80
2019-02-08T02:01:31.004Z,22.85
2019-02-08T02:03:37.327Z,21.65
2019-02-08T02:05:43.837Z,22.35
2019-02-08T02:07:50.266Z,22.52
2019-02-08T02:09:56.582Z,21.70
2019-02-08T02:12:02.843Z,22.67
2019-02-08T02:14:09.080Z,19.90
2019-02-08T02:16:15.331Z,22.35
2019-02-08T02:18:21.617Z,21.50
2019-02-08T02:20:37.565Z,21.87
2019-02-08T02:22:43.884Z,22.07
2019-02-08T02:24:50.108Z,22.22
2019-02-08T02:26:56.408Z,21.20
2019-02-08T02:29:02.669Z,20.65
2019-02-08T02:31:08.888Z,21.65
2019-02-08T02:33:15.474Z,22.48
2019-02-08T02:35:21.995Z,23.22
2019-02-08T02:37:28.153Z,22.17
2019-02-08T02:39:34.455Z,22.52
2019-02-08T02:41:40.778Z,22.30
2019-02-08T02:43:46.997Z,23.35
2019-02-08T02:45:53.242Z,20.62
2019-02-08T02:47:59.423Z,21.42
2019-02-08T02:50:09.054Z,23.20
2019-02-08T02:52:16.510Z,23.07
2019-02-08T02:54:24.145Z,23.15
2019-02-08T02:56:30.369Z,20.97
2019-02-08T02:58:36.523Z,21.25
2019-02-08T03:00:45.744Z,22.02
2019-02-08T03:02:51.913Z,22.07
2019-02-08T03:04:58.203Z,21.80
2019-02-08T03:07:04.393Z,23.52
2019-02-08T03:09:10.844Z,22.27
2019-02-08T03:11:17.093Z,22.70
2019-02-08T03:13:23.342Z,20.90
2019-02-08T03:15:29.645Z,21.20
2019-02-08T03:17:36.057Z,22.25
2019-02-08T03:19:42.388Z,23.45
2019-02-08T03:21:48.745Z,22.10
2019-02-08T03:23:55.119Z,22.45
2019-02-08T03:26:01.539Z,20.88
2019-02-08T03:28:07.911Z,21.60
2019-02-08T03:30:19.672Z,22.17
2019-02-08T03:32:25.939Z,21.45
2019-02-08T03:34:32.299Z,23.45
2019-02-08T03:36:38.597Z,22.35
2019-02-08T03:38:44.951Z,22.15
2019-02-08T03:40:51.193Z,22.77
2019-02-08T03:42:57.572Z,22.17
2019-02-08T03:45:05.007Z,21.82
2019-02-08T03:47:11.228Z,22.20
2019-02-08T03:49:17.532Z,22.85
2019-02-08T03:51:23.856Z,22.15
2019-02-08T03:53:30.247Z,21.87
2019-02-08T03:55:36.479Z,23.02
2019-02-08T03:57:42.727Z,24.07
2019-02-08T03:59:48.939Z,21.10
2019-02-08T04:01:56.224Z,22.15
2019-02-08T04:04:12.727Z,22.50
2019-02-08T04:06:18.945Z,23.65
2019-02-08T04:08:25.237Z,22.15
2019-02-08T04:10:31.496Z,23.12
2019-02-08T04:12:37.789Z,19.92
2019-02-08T04:14:44.092Z,20.43
2019-02-08T04:16:50.345Z,20.97
2019-02-08T04:18:56.641Z,22.15
2019-02-08T04:21:02.948Z,21.57
2019-02-08T04:23:09.148Z,21.60
2019-02-08T04:25:17.579Z,22.77
2019-02-08T04:27:23.866Z,23.42
2019-02-08T04:29:30.041Z,23.27
2019-02-08T04:31:36.347Z,22.80
2019-02-08T04:33:42.705Z,22.95
2019-02-08T04:35:49.111Z,22.15
2019-02-08T04:37:55.271Z,22.45
2019-02-08T04:40:01.487Z,22.62
2019-02-08T04:42:07.720Z,22.58
2019-02-08T04:44:13.949Z,23.00
2019-02-08T04:46:20.164Z,22.73
2019-02-08T04:48:26.349Z,23.52
2019-02-08T04:50:32.706Z,21.60
2019-02-08T04:52:38.954Z,24.50
2019-02-08T04:54:45.202Z,22.50
2019-02-08T04:56:51.496Z,22.60
2019-02-08T04:58:57.736Z,24.18
2019-02-08T05:01:04.042Z,24.20
2019-02-08T05:03:10.345Z,22.32
2019-02-08T05:05:16.499Z,21.85
2019-02-08T05:07:22.677Z,22.85
2019-02-08T05:09:28.827Z,21.62
2019-02-08T05:11:34.980Z,22.98
2019-02-08T05:13:41.224Z,23.98
2019-02-08T05:15:47.441Z,21.55
2019-02-08T05:17:53.673Z,23.40
2019-02-08T05:19:59.854Z,21.97
2019-02-08T05:22:06.906Z,22.85
2019-02-08T05:24:13.201Z,23.47
2019-02-08T05:26:19.397Z,23.40
2019-02-08T05:28:25.622Z,22.65
2019-02-08T05:30:36.379Z,23.20
2019-02-08T05:32:42.565Z,22.58
2019-02-08T05:34:48.807Z,22.32
2019-02-08T05:36:55.030Z,22.73
2019-02-08T05:39:01.345Z,22.00
2019-02-08T05:41:09.151Z,22.80
2019-02-08T05:43:15.326Z,23.25
2019-02-08T05:45:26.107Z,21.37
2019-02-08T05:47:32.247Z,22.87
2019-02-08T05:49:38.409Z,24.25
2019-02-08T05:51:44.585Z,23.02
2019-02-08T05:53:50.881Z,21.30
2019-02-08T05:55:57.095Z,23.62
2019-02-08T05:58:03.277Z,23.40
2019-02-08T06:00:17.080Z,23.18
2019-02-08T06:02:23.297Z,23.02
2019-02-08T06:04:29.497Z,22.00
2019-02-08T06:06:35.710Z,23.32
2019-02-08T06:08:41.873Z,27.60
2019-02-08T06:10:48.064Z,28.30
2019-02-08T06:12:54.299Z,26.33
2019-02-08T06:15:01.610Z,25.32
2019-02-08T06:17:07.868Z,24.00
2019-02-08T06:19:14.091Z,25.70
2019-02-08T06:21:20.285Z,25.60
2019-02-08T06:23:26.525Z,27.45
2019-02-08T06:25:32.691Z,29.45
2019-02-08T06:27:38.861Z,28.62
2019-02-08T06:29:45.109Z,31.85
2019-02-08T06:31:51.412Z,29.10
2019-02-08T06:33:57.729Z,27.13
2019-02-08T06:36:03.972Z,26.90
2019-02-08T06:38:11.203Z,26.12
2019-02-08T06:40:23.718Z,26.48
2019-02-08T06:42:29.979Z,24.92
2019-02-08T06:44:36.141Z,25.72
2019-02-08T06:46:42.387Z,24.87
2019-02-08T06:48:48.658Z,25.55
2019-02-08T06:50:54.963Z,25.95
2019-02-08T06:53:01.265Z,27.95
2019-02-08T06:55:10.851Z,25.30
2019-02-08T06:57:18.354Z,27.05
2019-02-08T06:59:26.218Z,27.77
2019-02-08T07:01:43.194Z,26.62
2019-02-08T07:03:57.107Z,24.55
2019-02-08T07:06:04.955Z,22.27
2019-02-08T07:08:17.022Z,23.27
2019-02-08T07:10:34.122Z,23.85
2019-02-08T07:12:41.969Z,22.93
2019-02-08T07:14:52.855Z,21.85
2019-02-08T07:17:01.719Z,22.50
2019-02-08T07:19:09.664Z,22.95
2019-02-08T07:21:32.834Z,22.52
2019-02-08T07:23:56.919Z,21.97
2019-02-08T07:29:06.079Z,24.87
2019-02-08T07:37:00.749Z,23.62
2019-02-08T07:39:10.885Z,22.32
2019-02-08T07:41:34.652Z,22.20
2019-02-08T07:46:09.517Z,21.30
2019-02-08T07:48:29.668Z,23.15
2019-02-08T07:50:40.641Z,23.95
2019-02-08T07:52:48.557Z,24.37
2019-02-08T07:54:59.474Z,21.97
2019-02-08T07:57:07.286Z,23.57
2019-02-08T07:59:15.205Z,23.73
2019-02-08T08:01:35.253Z,23.12
2019-02-08T08:03:52.600Z,23.55
2019-02-08T08:08:47.378Z,24.00
2019-02-08T08:10:57.829Z,24.43
2019-02-08T08:13:05.620Z,22.67
2019-02-08T08:15:17.313Z,23.80
2019-02-08T08:17:36.919Z,24.85
2019-02-08T08:20:00.711Z,21.25
2019-02-08T08:22:15.559Z,23.83
2019-02-08T08:24:37.341Z,23.52
2019-02-08T08:26:45.207Z,22.90
2019-02-08T08:29:06.552Z,25.92
2019-02-08T08:31:17.239Z,27.13
2019-02-08T08:33:34.313Z,25.92
2019-02-08T08:35:57.359Z,25.23
2019-02-08T08:38:43.068Z,23.50
2019-02-08T08:41:21.121Z,27.02
2019-02-08T08:43:37.734Z,25.23
2019-02-08T08:46:32.398Z,24.23
2019-02-08T08:49:16.356Z,27.13
2019-02-08T08:51:45.456Z,25.95
2019-02-08T08:54:14.142Z,25.95
2019-02-08T08:56:42.458Z,23.80
2019-02-08T08:59:08.362Z,25.05
2019-02-08T09:01:48.730Z,26.05
2019-02-08T09:04:30.921Z,25.52
2019-02-08T09:06:56.836Z,23.85
2019-02-08T09:09:47.235Z,25.23
2019-02-08T09:12:16.049Z,25.05
2019-02-08T09:14:54.221Z,24.45
2019-02-08T09:17:44.221Z,26.68
2019-02-08T09:20:10.066Z,26.45
2019-02-08T09:22:52.651Z,24.95
2019-02-08T09:25:15.783Z,24.12
2019-02-08T09:27:38.679Z,24.10
2019-02-08T09:30:25.986Z,24.45
2019-02-08T09:33:17.869Z,24.23
2019-02-08T09:36:11.413Z,23.52
2019-02-08T09:38:58.599Z,24.45
2019-02-08T09:41:29.124Z,28.15
2019-02-08T09:43:59.399Z,25.77
2019-02-08T09:46:32.881Z,26.80
2019-02-08T09:49:33.479Z,25.37
2019-02-08T09:52:05.748Z,22.98
2019-02-08T09:54:19.782Z,24.77
2019-02-08T09:56:47.140Z,27.73
2019-02-08T09:59:22.326Z,27.98
2019-02-08T10:02:14.123Z,28.45
2019-02-08T10:05:02.600Z,31.17
2019-02-08T10:07:40.784Z,23.42
2019-02-08T10:09:57.535Z,27.27
2019-02-08T10:12:08.665Z,26.17
2019-02-08T10:14:44.939Z,26.65
2019-02-08T10:17:30.774Z,28.17
2019-02-08T10:20:01.258Z,23.25
2019-02-08T10:22:33.487Z,25.50
2019-02-08T10:25:27.055Z,24.80
2019-02-08T10:27:58.857Z,23.22
2019-02-08T10:30:52.123Z,26.87
2019-02-08T10:33:28.777Z,23.00
2019-02-08T10:36:15.457Z,23.12
2019-02-08T10:38:42.997Z,23.10
2019-02-08T10:41:30.495Z,22.75
2019-02-08T10:44:09.889Z,22.62
2019-02-08T10:46:54.322Z,23.12
2019-02-08T10:49:17.174Z,25.05
2019-02-08T10:51:55.558Z,24.55
2019-02-08T10:54:47.307Z,23.07
2019-02-08T10:57:13.154Z,23.85
2019-02-08T10:59:59.263Z,23.32
2019-02-08T11:02:45.856Z,23.80
2019-02-08T11:05:22.331Z,21.23
2019-02-08T11:08:09.641Z,22.60
2019-02-08T11:10:38.343Z,23.80
2019-02-08T11:13:15.837Z,23.67
2019-02-08T11:16:04.177Z,21.20
2019-02-08T11:18:43.017Z,21.95
2019-02-08T11:20:49.174Z,21.93
2019-02-08T11:22:55.434Z,22.48
2019-02-08T11:25:01.679Z,20.95
2019-02-08T11:27:07.834Z,21.10
2019-02-08T11:29:14.033Z,22.62
2019-02-08T11:31:20.340Z,24.43
2019-02-08T11:33:26.500Z,21.12
2019-02-08T11:35:32.705Z,23.05
2019-02-08T11:37:39.062Z,20.68
2019-02-08T11:39:45.294Z,19.98
2019-02-08T11:41:51.560Z,19.35
2019-02-08T11:43:57.724Z,19.80
2019-02-08T11:46:03.953Z,20.97
2019-02-08T11:48:10.354Z,20.37
2019-02-08T11:50:22.803Z,21.70
2019-02-08T11:52:28.971Z,17.92
2019-02-08T11:54:35.220Z,19.85
2019-02-08T11:56:41.440Z,19.42
2019-02-08T11:58:47.713Z,20.90
2019-02-08T12:00:55.611Z,20.20
2019-02-08T12:03:01.898Z,19.67
2019-02-08T12:05:08.751Z,20.62
2019-02-08T12:07:15.059Z,21.52
2019-02-08T12:09:21.293Z,23.45
2019-02-08T12:11:27.610Z,19.35
2019-02-08T12:13:33.798Z,18.30
2019-02-08T12:15:40.035Z,18.10
2019-02-08T12:17:46.192Z,18.87
2019-02-08T12:19:52.458Z,20.10
2019-02-08T12:21:58.616Z,19.45
2019-02-08T12:24:05.682Z,21.33
2019-02-08T12:26:11.886Z,20.52
2019-02-08T12:28:18.126Z,18.00
2019-02-08T12:30:37.379Z,19.02
2019-02-08T12:32:43.624Z,19.20
2019-02-08T12:34:49.999Z,18.82
2019-02-08T12:36:56.165Z,20.08
2019-02-08T12:39:02.449Z,19.67
2019-02-08T12:41:10.307Z,17.75
2019-02-08T12:43:17.813Z,20.32
2019-02-08T12:45:24.166Z,18.57
2019-02-08T12:47:30.332Z,19.10
2019-02-08T12:49:36.627Z,18.62
2019-02-08T12:51:42.868Z,20.20
2019-02-08T12:53:49.093Z,19.75
2019-02-08T12:55:55.392Z,18.02
2019-02-08T12:58:01.778Z,19.82
2019-02-08T13:00:21.755Z,19.25
2019-02-08T13:02:28.129Z,19.65
2019-02-08T13:04:34.443Z,20.43
2019-02-08T13:06:40.673Z,20.88
2019-02-08T13:08:46.966Z,19.50
2019-02-08T13:10:53.236Z,19.70
2019-02-08T13:12:59.406Z,20.85
2019-02-08T13:15:10.342Z,20.05
2019-02-08T13:17:16.534Z,20.85
2019-02-08T13:19:22.761Z,21.45
2019-02-08T13:21:28.983Z,19.10
2019-02-08T13:23:35.257Z,19.50
2019-02-08T13:25:41.493Z,20.32
2019-02-08T13:27:48.736Z,19.85
2019-02-08T13:29:54.989Z,17.55
2019-02-08T13:32:02.235Z,18.92
2019-02-08T13:34:08.394Z,18.42
2019-02-08T13:36:14.658Z,17.98
2019-02-08T13:38:20.811Z,20.45
2019-02-08T13:40:31.360Z,20.43
2019-02-08T13:42:37.547Z,20.17
2019-02-08T13:44:43.783Z,19.90
2019-02-08T13:46:50.103Z,19.73
2019-02-08T13:48:56.553Z,18.73
2019-02-08T13:51:02.702Z,19.82
2019-02-08T13:53:08.946Z,20.17
2019-02-08T13:55:19.408Z,20.65
2019-02-08T13:57:25.798Z,20.97
2019-02-08T13:59:32.020Z,20.57
2019-02-08T14:01:38.287Z,19.37
2019-02-08T14:03:44.443Z,19.55
2019-02-08T14:05:50.594Z,21.27
2019-02-08T14:07:56.922Z,18.77
2019-02-08T14:10:03.272Z,19.00
2019-02-08T14:12:09.568Z,18.82
2019-02-08T14:14:15.807Z,21.05
2019-02-08T14:16:21.981Z,20.25
2019-02-08T14:18:28.412Z,20.50
2019-02-08T14:20:34.655Z,21.87
2019-02-08T14:22:40.958Z,19.67
2019-02-08T14:24:47.497Z,21.23
2019-02-08T14:26:53.826Z,22.32
2019-02-08T14:29:00.040Z,21.68
2019-02-08T14:31:06.224Z,21.30
2019-02-08T14:33:12.615Z,20.45
2019-02-08T14:35:18.925Z,23.50
2019-02-08T14:37:25.224Z,21.07
2019-02-08T14:39:31.519Z,22.42
2019-02-08T14:41:37.755Z,22.45
2019-02-08T14:43:44.047Z,21.12
2019-02-08T14:45:50.372Z,19.50
2019-02-08T14:47:56.602Z,21.27
2019-02-08T14:50:02.765Z,21.73
2019-02-08T14:52:09.032Z,22.35
2019-02-08T14:54:15.319Z,22.67
2019-02-08T14:56:21.608Z,21.62
2019-02-08T14:58:28.686Z,21.60
2019-02-08T15:00:36.615Z,22.37
2019-02-08T15:02:43.186Z,22.55
2019-02-08T15:04:49.588Z,22.30
2019-02-08T15:06:55.873Z,23.75
2019-02-08T15:09:02.113Z,23.47
2019-02-08T15:11:10.054Z,21.25
2019-02-08T15:13:16.225Z,22.55
2019-02-08T15:15:22.520Z,22.22
2019-02-08T15:17:28.916Z,20.52
2019-02-08T15:19:35.216Z,20.23
2019-02-08T15:21:41.613Z,22.40
2019-02-08T15:23:48.007Z,24.50
2019-02-08T15:25:54.304Z,23.38
2019-02-08T15:28:00.762Z,25.20
2019-02-08T15:30:18.467Z,25.12
2019-02-08T15:32:25.019Z,27.82
2019-02-08T15:34:31.322Z,25.50
2019-02-08T15:36:37.594Z,26.17
2019-02-08T15:38:43.992Z,27.20
2019-02-08T15:40:53.659Z,28.00
2019-02-08T15:43:00.040Z,29.52
2019-02-08T15:45:14.123Z,26.90
2019-02-08T15:47:22.052Z,25.90
2019-02-08T15:49:28.526Z,25.57
2019-02-08T15:51:36.519Z,25.17
2019-02-08T15:53:43.908Z,26.57
2019-02-08T15:56:08.142Z,24.50
2019-02-08T15:58:15.753Z,23.75
2019-02-08T16:00:28.522Z,23.85
2019-02-08T16:02:34.982Z,26.23
2019-02-08T16:04:41.346Z,22.65
2019-02-08T16:06:47.800Z,24.55
2019-02-08T16:08:54.404Z,24.40
2019-02-08T16:11:00.775Z,23.98
2019-02-08T16:13:08.633Z,23.73
2019-02-08T16:15:19.657Z,23.73
2019-02-08T16:17:25.950Z,22.82
2019-02-08T16:19:32.181Z,21.40
2019-02-08T16:21:38.634Z,23.70
2019-02-08T16:23:44.925Z,24.43
2019-02-08T16:25:51.297Z,24.37
2019-02-08T16:27:57.544Z,22.93
2019-02-08T16:30:06.004Z,22.98
2019-02-08T16:32:12.405Z,22.82
2019-02-08T16:34:18.802Z,21.75
2019-02-08T16:36:25.032Z,20.75
2019-02-08T16:38:32.263Z,19.67
2019-02-08T16:40:38.666Z,19.40
2019-02-08T16:42:45.028Z,19.17
2019-02-08T16:44:51.254Z,17.73
2019-02-08T16:46:57.615Z,17.73
2019-02-08T16:49:03.982Z,19.05
2019-02-08T16:51:10.280Z,19.27
2019-02-08T16:53:16.685Z,20.15
2019-02-08T16:55:23.651Z,19.60
2019-02-08T16:57:30.144Z,20.92
2019-02-08T16:59:36.391Z,21.62
2019-02-08T17:01:42.672Z,20.88
2019-02-08T17:03:49.328Z,21.52
2019-02-08T17:05:55.734Z,23.60
2019-02-08T17:08:05.090Z,22.75
2019-02-08T17:10:15.800Z,21.10
2019-02-08T17:12:22.114Z,20.97
2019-02-08T17:14:28.403Z,21.55
2019-02-08T17:16:34.894Z,21.40
2019-02-08T17:18:41.313Z,22.10
2019-02-08T17:20:49.971Z,22.32
2019-02-08T17:22:58.061Z,21.75
2019-02-08T17:25:05.244Z,22.10
2019-02-08T17:27:11.638Z,20.85
2019-02-08T17:29:18.104Z,20.27
2019-02-08T17:31:24.370Z,19.90
2019-02-08T17:33:30.683Z,19.52
2019-02-08T17:35:36.903Z,20.12
2019-02-08T17:37:44.879Z,20.95
2019-02-08T17:39:51.172Z,19.40
2019-02-08T17:41:57.472Z,21.75
2019-02-08T17:44:03.861Z,20.27
2019-02-08T17:46:10.259Z,18.50
2019-02-08T17:48:17.203Z,19.82
2019-02-08T17:50:27.859Z,20.97
2019-02-08T17:52:34.241Z,21.45
2019-02-08T17:54:40.606Z,21.68
2019-02-08T17:57:19.289Z,21.97
2019-02-08T18:02:09.515Z,22.87
2019-02-08T18:04:16.106Z,21.25
2019-02-08T18:06:22.632Z,22.00
2019-02-08T18:08:29.030Z,24.32
2019-02-08T18:10:35.423Z,20.85
2019-02-08T18:12:41.653Z,23.98
2019-02-08T18:14:48.390Z,25.35
2019-02-08T18:16:56.406Z,24.63
2019-02-08T18:19:02.842Z,24.45
2019-02-08T18:21:09.338Z,26.80
2019-02-08T18:23:15.890Z,28.25
2019-02-08T18:25:24.091Z,27.35
2019-02-08T18:27:30.645Z,27.50
2019-02-08T18:29:37.233Z,27.35
2019-02-08T18:31:43.544Z,27.50
2019-02-08T18:33:49.846Z,27.52
2019-02-08T18:35:57.283Z,29.72
2019-02-08T18:38:03.755Z,29.15
2019-02-08T18:40:17.385Z,31.68
2019-02-08T18:42:23.871Z,30.90
2019-02-08T18:44:30.229Z,31.12
2019-02-08T18:46:36.586Z,30.17
2019-02-08T18:48:43.216Z,31.97
2019-02-08T18:50:53.344Z,32.73
2019-02-08T18:52:59.847Z,34.55
2019-02-08T18:55:06.612Z,29.75
2019-02-08T18:57:13.467Z,26.95
2019-02-08T18:59:19.854Z,26.82
2019-02-08T19:01:26.345Z,26.42
2019-02-08T19:03:33.365Z,27.25
2019-02-08T19:05:39.826Z,24.85
2019-02-08T19:07:46.416Z,25.00
2019-02-08T19:09:52.793Z,25.80
2019-02-08T19:11:59.761Z,28.00
2019-02-08T19:14:06.289Z,27.05
2019-02-08T19:16:12.734Z,26.12
2019-02-08T19:18:19.126Z,25.75
2019-02-08T19:20:28.682Z,26.05
2019-02-08T19:22:36.154Z,25.90
2019-02-08T19:24:42.459Z,26.30
2019-02-08T19:26:48.893Z,25.57
2019-02-08T19:28:55.112Z,26.00
2019-02-08T19:31:01.515Z,25.12
2019-02-08T19:33:08.107Z,25.30
2019-02-08T19:35:17.469Z,25.68
2019-02-08T19:37:23.711Z,26.42
2019-02-08T19:39:31.471Z,24.63
2019-02-08T19:41:37.842Z,24.57
2019-02-08T19:43:44.262Z,25.80
2019-02-08T19:45:50.669Z,24.40
2019-02-08T19:47:58.563Z,25.15
2019-02-08T19:50:09.781Z,24.00
2019-02-08T19:52:19.109Z,24.25
2019-02-08T19:54:26.740Z,24.15
2019-02-08T19:56:33.825Z,24.67
2019-02-08T19:58:40.304Z,25.85
2019-02-08T20:00:46.903Z,24.87
2019-02-08T20:02:53.386Z,24.18
2019-02-08T20:04:59.927Z,24.45
2019-02-08T20:07:08.666Z,24.40
2019-02-08T20:09:14.975Z,26.30
2019-02-08T20:11:21.486Z,24.95
2019-02-08T20:13:29.091Z,25.37
2019-02-08T20:15:35.535Z,23.73
2019-02-08T20:17:41.994Z,23.75
2019-02-08T20:19:48.427Z,21.55
2019-02-08T20:21:56.071Z,22.07
2019-02-08T20:24:02.451Z,22.30
2019-02-08T20:26:08.838Z,23.40
2019-02-08T20:28:15.192Z,23.05
2019-02-08T20:30:27.811Z,22.82
2019-02-08T20:32:35.052Z,23.02
2019-02-08T20:34:41.419Z,22.50
2019-02-08T20:36:47.832Z,22.73
2019-02-08T20:38:56.465Z,22.02
2019-02-08T20:41:07.612Z,23.67
2019-02-08T20:43:13.936Z,23.65
2019-02-08T20:45:24.166Z,22.65
2019-02-08T20:47:31.721Z,21.97
2019-02-08T20:49:38.132Z,21.05
2019-02-08T20:51:44.484Z,22.10
2019-02-08T20:53:50.872Z,22.07
2019-02-08T20:55:58.334Z,23.40
2019-02-08T20:58:06.099Z,21.42
2019-02-08T21:00:36.445Z,22.45
2019-02-08T21:02:43.122Z,22.85
2019-02-08T21:04:52.246Z,24.52
2019-02-08T21:09:05.394Z,25.30
2019-02-08T21:11:14.192Z,25.10
2019-02-08T21:13:20.586Z,26.55
2019-02-08T21:15:30.141Z,27.67
2019-02-08T21:17:36.420Z,26.12
2019-02-08T21:19:43.846Z,28.95
2019-02-08T21:21:51.847Z,29.00
2019-02-08T21:24:01.811Z,31.25
2019-02-08T21:26:08.185Z,30.45
2019-02-08T21:28:14.590Z,31.30
2019-02-08T21:30:20.902Z,30.12
2019-02-08T21:32:28.315Z,32.08
2019-02-08T21:34:34.705Z,32.75
2019-02-08T21:36:41.179Z,32.65
2019-02-08T21:38:47.628Z,32.78
2019-02-08T21:40:54.029Z,33.45
2019-02-08T21:43:02.022Z,33.45
2019-02-08T21:45:24.813Z,32.93
2019-02-08T21:47:31.200Z,36.35
2019-02-08T21:49:39.454Z,33.53
2019-02-08T21:51:47.458Z,33.33
2019-02-08T21:53:53.855Z,33.00
2019-02-08T21:56:00.220Z,34.50
2019-02-08T21:58:06.957Z,34.45
2019-02-08T22:00:22.406Z,33.90
2019-02-08T22:02:29.219Z,33.48
2019-02-08T22:04:35.640Z,33.73
2019-02-08T22:06:42.039Z,33.85
2019-02-08T22:08:48.501Z,33.90
2019-02-08T22:10:54.884Z,33.67
2019-02-08T22:13:03.083Z,37.73
2019-02-08T22:15:18.597Z,35.13
2019-02-08T22:17:24.883Z,36.68
2019-02-08T22:19:31.282Z,34.18
2019-02-08T22:21:37.654Z,34.45
2019-02-08T22:23:44.951Z,32.70
2019-02-08T22:25:51.347Z,33.55
2019-02-08T22:27:57.786Z,32.30
2019-02-08T22:30:06.334Z,34.05
2019-02-08T22:32:12.755Z,34.38
2019-02-08T22:34:20.749Z,35.95
2019-02-08T22:36:27.067Z,38.45
2019-02-08T22:38:34.961Z,35.45
2019-02-08T22:40:41.226Z,35.65
2019-02-08T22:42:47.563Z,35.35
2019-02-08T22:44:53.961Z,36.25
2019-02-08T22:47:00.177Z,38.02
2019-02-08T22:49:06.486Z,39.03
2019-02-08T22:51:12.996Z,37.08
2019-02-08T22:53:19.361Z,35.23
2019-02-08T22:55:28.838Z,37.42
2019-02-08T22:57:35.096Z,38.95
2019-02-08T22:59:41.525Z,37.55
2019-02-08T23:01:47.937Z,37.25
2019-02-08T23:03:54.439Z,37.20
2019-02-08T23:06:02.419Z,37.00
2019-02-08T23:08:09.668Z,38.10
2019-02-08T23:10:16.136Z,39.70
2019-02-08T23:12:23.773Z,39.23
2019-02-08T23:14:30.277Z,36.68
2019-02-08T23:16:37.223Z,37.10
2019-02-08T23:18:44.627Z,37.33
2019-02-08T23:20:50.932Z,37.42
2019-02-08T23:22:57.185Z,38.30
2019-02-08T23:25:03.814Z,36.95
2019-02-08T23:27:10.044Z,36.80
2019-02-08T23:29:16.290Z,36.88
2019-02-08T23:31:22.535Z,37.10
2019-02-08T23:33:28.870Z,38.15
2019-02-08T23:35:41.823Z,39.42
2019-02-08T23:37:43.003Z,39.00
2019-02-08T23:39:49.346Z,38.30
2019-02-08T23:41:55.640Z,37.90
2019-02-08T23:44:02.031Z,39.30
2019-02-08T23:46:08.316Z,37.95
2019-02-08T23:48:14.570Z,37.17
2019-02-08T23:50:23.609Z,37.95
2019-02-08T23:52:29.971Z,37.40
2019-02-08T23:54:36.165Z,37.70
2019-02-08T23:56:42.401Z,37.38
2019-02-08T23:58:48.556Z,38.98
